Time;durP1;ratioP1;P1;durP2;ratioP2;P2;SDS_P1;SDS_P2;PMS_P1;PMS_P2;Temp;Humidity;BMP_temperature;BMP_pressure;BME280_temperature;BME280_humidity;BME280_pressure;Samples;Min_cycle;Max_cycle;Signal;HPM_P1;HPM_P2
2022/08/07 00:01:33;;;;;;;18.27;14.43;;;13.90;92.10;;;;;;5061618;28;20036;-66
2022/08/07 00:03:59;;;;;;;17.92;15.45;;;13.90;91.80;;;;;;5054416;28;20322;-67
2022/08/07 00:06:25;;;;;;;15.70;13.73;;;13.80;91.90;;;;;;5067914;28;20028;-67
2022/08/07 00:08:50;;;;;;;18.42;14.63;;;13.80;91.90;;;;;;5067750;28;20048;-67
2022/08/07 00:11:16;;;;;;;18.38;15.20;;;13.80;91.90;;;;;;5068046;28;20406;-67
2022/08/07 00:13:44;;;;;;;18.02;14.25;;;13.80;91.70;;;;;;5064988;28;20111;-66
2022/08/07 00:16:10;;;;;;;17.60;14.68;;;13.80;91.80;;;;;;5064802;28;20417;-66
2022/08/07 00:18:39;;;;;;;14.38;12.88;;;13.70;91.80;;;;;;5056985;28;20036;-67
2022/08/07 00:21:06;;;;;;;15.95;13.80;;;13.70;91.40;;;;;;5066707;28;20116;-66
2022/08/07 00:23:33;;;;;;;15.40;13.77;;;13.70;91.50;;;;;;5062833;28;20041;-66
2022/08/07 00:26:01;;;;;;;16.48;14.77;;;13.70;91.20;;;;;;5067250;28;20325;-66
2022/08/07 00:28:29;;;;;;;17.52;14.30;;;13.70;91.30;;;;;;5067310;28;20029;-67
2022/08/07 00:30:54;;;;;;;18.83;15.43;;;13.60;91.30;;;;;;5067659;28;20029;-66
2022/08/07 00:33:25;;;;;;;20.35;17.85;;;13.50;91.00;;;;;;5070327;28;20338;-66
2022/08/07 00:35:51;;;;;;;17.67;13.70;;;13.50;90.60;;;;;;5061879;28;20108;-67
2022/08/07 00:38:17;;;;;;;17.65;14.00;;;13.40;91.00;;;;;;5073000;28;20023;-66
2022/08/07 00:40:43;;;;;;;16.10;13.68;;;13.30;90.80;;;;;;5074162;28;20368;-67
2022/08/07 00:43:10;;;;;;;15.82;14.02;;;13.30;89.50;;;;;;5066616;28;20128;-65
2022/08/07 00:45:39;;;;;;;16.08;14.25;;;13.40;89.30;;;;;;5071748;28;20056;-66
2022/08/07 00:48:06;;;;;;;16.95;14.05;;;13.30;89.50;;;;;;5073564;28;20029;-65
2022/08/07 00:50:32;;;;;;;17.38;14.80;;;13.30;88.80;;;;;;5078257;28;20045;-65
2022/08/07 00:52:57;;;;;;;19.08;15.05;;;13.40;88.90;;;;;;5077017;28;20032;-65
2022/08/07 00:55:24;;;;;;;17.33;14.77;;;13.40;89.40;;;;;;5077069;28;20020;-65
2022/08/07 00:57:50;;;;;;;16.95;15.13;;;13.40;90.30;;;;;;5071331;28;20051;-65
2022/08/07 01:00:17;;;;;;;18.17;16.15;;;13.40;90.50;;;;;;5077855;28;20021;-66
2022/08/07 01:02:44;;;;;;;20.10;16.00;;;13.40;90.70;;;;;;5073822;28;20025;-65
2022/08/07 01:05:11;;;;;;;15.63;13.98;;;13.50;90.90;;;;;;5071742;28;20102;-66
2022/08/07 01:07:39;;;;;;;15.80;13.70;;;13.50;91.00;;;;;;5074047;28;20502;-65
2022/08/07 01:10:06;;;;;;;18.50;15.00;;;13.50;91.50;;;;;;5075681;28;20031;-65
2022/08/07 01:12:35;;;;;;;19.50;16.90;;;13.40;91.30;;;;;;5074021;28;20035;-66
2022/08/07 01:15:03;;;;;;;19.40;16.27;;;13.30;90.90;;;;;;5071625;28;20023;-65
2022/08/07 01:17:29;;;;;;;17.15;14.52;;;13.30;90.80;;;;;;5069070;28;20502;-65
2022/08/07 01:20:03;;;;;;;21.88;16.98;;;13.20;90.50;;;;;;5073215;28;20089;-66
2022/08/07 01:22:30;;;;;;;18.20;15.75;;;13.10;89.80;;;;;;5079383;28;20314;-65
2022/08/07 01:24:56;;;;;;;17.35;15.40;;;13.10;89.40;;;;;;5072621;28;20032;-67
2022/08/07 01:27:22;;;;;;;19.63;16.38;;;13.10;89.00;;;;;;5076174;28;20082;-67
2022/08/07 01:29:48;;;;;;;20.10;17.30;;;13.10;88.60;;;;;;5070110;28;20032;-66
2022/08/07 01:32:14;;;;;;;19.02;16.83;;;13.10;88.50;;;;;;5067588;28;20112;-67
2022/08/07 01:34:43;;;;;;;20.00;16.30;;;13.20;88.70;;;;;;5078153;28;20095;-65
2022/08/07 01:37:11;;;;;;;20.92;16.92;;;13.10;89.10;;;;;;5075084;28;20017;-66
2022/08/07 01:39:37;;;;;;;17.35;15.15;;;13.00;89.20;;;;;;5085950;28;20017;-65
2022/08/07 01:42:02;;;;;;;16.77;14.73;;;12.90;89.20;;;;;;5083665;28;20124;-66
2022/08/07 01:44:28;;;;;;;21.45;16.35;;;12.80;88.70;;;;;;5079999;28;20444;-67
2022/08/07 01:46:54;;;;;;;18.95;16.05;;;12.80;88.00;;;;;;5070335;28;20025;-67
2022/08/07 01:49:20;;;;;;;16.67;14.35;;;12.80;87.80;;;;;;5068488;28;20309;-67
2022/08/07 01:51:47;;;;;;;18.05;16.00;;;12.70;87.40;;;;;;5065420;28;20021;-66
2022/08/07 01:54:14;;;;;;;17.50;15.63;;;12.60;87.10;;;;;;5073296;28;20028;-67
2022/08/07 01:56:51;;;;;;;16.60;13.90;;;12.60;87.00;;;;;;5065624;28;20029;-67
2022/08/07 01:59:34;;;;;;;17.52;14.48;;;12.60;86.30;;;;;;5073691;28;20032;-66
2022/08/07 02:02:06;;;;;;;17.15;13.38;;;12.60;86.10;;;;;;5065995;28;20112;-66
2022/08/07 02:04:46;;;;;;;16.77;14.98;;;12.50;85.60;;;;;;5064976;28;20313;-66
2022/08/07 02:07:15;;;;;;;16.85;13.75;;;12.50;85.50;;;;;;5060040;28;20134;-67
2022/08/07 02:09:44;;;;;;;16.88;14.55;;;12.50;85.60;;;;;;5078051;28;20020;-67
2022/08/07 02:12:18;;;;;;;16.30;13.00;;;12.50;85.80;;;;;;5072407;28;20028;-67
2022/08/07 02:14:51;;;;;;;20.02;16.75;;;12.40;85.50;;;;;;5063054;28;20485;-66
2022/08/07 02:17:17;;;;;;;17.80;15.30;;;12.40;85.40;;;;;;5072475;28;20057;-67
2022/08/07 02:19:47;;;;;;;19.13;16.88;;;12.40;85.40;;;;;;5066327;28;20038;-66
2022/08/07 02:22:18;;;;;;;17.17;15.40;;;12.40;86.40;;;;;;5059813;28;20021;-67
2022/08/07 02:24:46;;;;;;;19.00;15.93;;;12.30;86.10;;;;;;5066902;28;20017;-67
2022/08/07 02:27:15;;;;;;;17.25;14.93;;;12.20;85.10;;;;;;5079308;28;20021;-66
2022/08/07 02:29:42;;;;;;;15.65;13.85;;;12.20;84.90;;;;;;5065787;28;20364;-67
2022/08/07 02:32:09;;;;;;;16.63;14.45;;;12.30;85.40;;;;;;5058572;28;20021;-66
2022/08/07 02:34:36;;;;;;;16.60;14.85;;;12.20;85.30;;;;;;5066701;28;20032;-67
2022/08/07 02:37:04;;;;;;;20.35;14.93;;;12.20;85.10;;;;;;5070684;28;20021;-66
2022/08/07 02:39:32;;;;;;;20.05;15.98;;;12.10;85.40;;;;;;5065768;28;20024;-67
2022/08/07 02:41:59;;;;;;;16.70;14.80;;;12.00;85.50;;;;;;5071567;28;20016;-67
2022/08/07 02:44:27;;;;;;;21.45;16.98;;;12.00;85.40;;;;;;5062621;28;20322;-66
2022/08/07 02:46:55;;;;;;;19.55;15.23;;;11.90;85.50;;;;;;5070576;28;20032;-67
2022/08/07 02:49:20;;;;;;;15.38;13.27;;;11.80;84.70;;;;;;5071005;28;20726;-67
2022/08/07 02:51:47;;;;;;;14.35;12.63;;;11.80;84.20;;;;;;5067072;28;20028;-67
2022/08/07 02:54:15;;;;;;;15.05;12.90;;;11.80;84.10;;;;;;5061752;28;20036;-66
2022/08/07 02:56:45;;;;;;;18.02;14.18;;;11.80;84.30;;;;;;5072977;28;20029;-66
2022/08/07 02:59:14;;;;;;;17.55;15.30;;;11.70;84.40;;;;;;5068916;28;20036;-66
2022/08/07 03:01:41;;;;;;;14.95;13.27;;;11.70;84.20;;;;;;5062324;28;20053;-67
2022/08/07 03:04:12;;;;;;;16.15;13.43;;;11.70;84.60;;;;;;5061865;28;20028;-66
2022/08/07 03:06:39;;;;;;;17.17;14.52;;;11.60;84.50;;;;;;5063693;28;20112;-66
2022/08/07 03:09:10;;;;;;;17.50;13.68;;;11.50;84.50;;;;;;5060737;28;20853;-66
2022/08/07 03:11:36;;;;;;;19.73;14.30;;;11.50;83.90;;;;;;5067753;28;20029;-66
2022/08/07 03:14:04;;;;;;;14.88;13.15;;;11.50;83.50;;;;;;5067706;28;20032;-66
2022/08/07 03:16:31;;;;;;;14.68;12.73;;;11.50;83.90;;;;;;5066758;28;20025;-67
2022/08/07 03:18:58;;;;;;;17.67;13.68;;;11.50;84.00;;;;;;5068091;28;20047;-66
2022/08/07 03:21:25;;;;;;;14.38;12.05;;;11.40;84.20;;;;;;5070707;28;20025;-66
2022/08/07 03:23:54;;;;;;;15.70;13.85;;;11.40;84.10;;;;;;5067325;28;20104;-66
2022/08/07 03:26:24;;;;;;;15.95;14.32;;;11.30;84.30;;;;;;5073846;28;20114;-66
2022/08/07 03:28:50;;;;;;;16.17;13.32;;;11.30;84.30;;;;;;5061927;28;20027;-66
2022/08/07 03:31:21;;;;;;;15.27;11.38;;;11.20;84.20;;;;;;5061293;28;20307;-66
2022/08/07 03:33:59;;;;;;;15.45;13.35;;;11.20;83.40;;;;;;5068226;28;20103;-66
2022/08/07 03:36:26;;;;;;;13.95;11.57;;;11.20;83.50;;;;;;5070263;28;20042;-66
2022/08/07 03:38:57;;;;;;;17.25;14.35;;;11.10;83.60;;;;;;5063159;28;20070;-67
2022/08/07 03:41:24;;;;;;;14.30;11.15;;;11.10;83.20;;;;;;5062728;28;20028;-65
2022/08/07 03:43:50;;;;;;;14.55;12.80;;;11.00;83.10;;;;;;5070175;28;20064;-66
2022/08/07 03:46:16;;;;;;;15.38;13.77;;;11.00;83.40;;;;;;5067957;28;20044;-65
2022/08/07 03:48:42;;;;;;;12.73;11.38;;;11.00;83.30;;;;;;5056172;28;20029;-66
2022/08/07 03:51:09;;;;;;;15.77;11.88;;;11.00;82.20;;;;;;5055786;28;20028;-65
2022/08/07 03:53:40;;;;;;;16.65;13.20;;;11.00;82.00;;;;;;5066111;28;20051;-65
2022/08/07 03:56:08;;;;;;;15.73;13.70;;;11.10;82.50;;;;;;5064684;28;20030;-66
2022/08/07 03:58:34;;;;;;;16.33;13.90;;;11.00;83.10;;;;;;5066728;28;20028;-67
2022/08/07 04:01:00;;;;;;;14.00;12.38;;;11.00;83.20;;;;;;5067186;28;20096;-68
2022/08/07 04:03:26;;;;;;;14.50;12.20;;;10.90;83.40;;;;;;5056985;28;20083;-66
2022/08/07 04:05:54;;;;;;;15.60;12.32;;;10.80;83.00;;;;;;5071446;28;20028;-67
2022/08/07 04:08:20;;;;;;;16.50;13.73;;;10.90;82.00;;;;;;5067643;28;20334;-66
2022/08/07 04:10:49;;;;;;;17.40;14.85;;;10.90;81.90;;;;;;5074549;28;20028;-66
2022/08/07 04:13:16;;;;;;;14.40;12.70;;;10.90;82.10;;;;;;5064318;28;20032;-65
2022/08/07 04:15:45;;;;;;;17.30;14.55;;;10.90;81.80;;;;;;5076478;28;20020;-66
2022/08/07 04:18:13;;;;;;;18.52;16.33;;;10.90;82.20;;;;;;5071474;28;20482;-65
2022/08/07 04:20:39;;;;;;;16.90;13.85;;;10.90;81.50;;;;;;5055731;28;20057;-66
2022/08/07 04:23:08;;;;;;;18.42;16.50;;;11.00;81.70;;;;;;5063028;28;20396;-65
2022/08/07 04:25:37;;;;;;;21.08;17.17;;;11.10;81.10;;;;;;5070726;28;20298;-65
2022/08/07 04:28:07;;;;;;;22.95;16.85;;;11.10;81.50;;;;;;5066630;28;20078;-66
2022/08/07 04:30:34;;;;;;;16.92;15.13;;;11.10;82.10;;;;;;5083316;28;20028;-65
2022/08/07 04:33:04;;;;;;;16.27;13.77;;;11.10;81.50;;;;;;5056851;28;20029;-66
2022/08/07 04:35:30;;;;;;;18.80;15.30;;;11.10;81.20;;;;;;5071589;28;20033;-65
2022/08/07 04:37:56;;;;;;;19.48;14.68;;;11.10;80.80;;;;;;5065967;28;20033;-67
2022/08/07 04:40:22;;;;;;;21.35;17.95;;;11.20;81.40;;;;;;5054256;28;20033;-66
2022/08/07 04:42:47;;;;;;;18.92;16.92;;;11.30;80.60;;;;;;5059731;28;20025;-66
2022/08/07 04:45:13;;;;;;;22.40;19.30;;;11.40;80.60;;;;;;5074627;28;20142;-66
2022/08/07 04:47:39;;;;;;;19.13;15.73;;;11.50;80.70;;;;;;5069616;28;20033;-66
2022/08/07 04:50:16;;;;;;;21.48;17.30;;;11.50;82.40;;;;;;5064392;28;20123;-66
2022/08/07 04:52:52;;;;;;;20.88;18.25;;;11.40;83.60;;;;;;5058928;28;20037;-66
2022/08/07 04:55:20;;;;;;;21.98;18.17;;;11.40;82.90;;;;;;5070869;28;20032;-66
2022/08/07 04:57:53;;;;;;;21.80;19.23;;;11.40;83.50;;;;;;5058528;28;20040;-65
2022/08/07 05:00:31;;;;;;;18.95;16.95;;;11.40;84.10;;;;;;5068096;28;20440;-66
2022/08/07 05:03:38;;;;;;;22.15;18.45;;;11.30;83.80;;;;;;5072397;28;20060;-66
2022/08/07 05:06:12;;;;;;;21.77;19.23;;;11.30;82.80;;;;;;5056097;28;20029;-66
2022/08/07 05:08:52;;;;;;;;;;;11.40;83.00;;;;;;5058253;28;20119;-66
2022/08/07 05:11:30;;;;;;;20.73;18.50;;;11.40;82.50;;;;;;5070412;28;20009;-66
2022/08/07 05:14:10;;;;;;;28.17;23.60;;;11.50;81.90;;;;;;5058307;28;20021;-66
2022/08/07 05:16:38;;;;;;;27.05;21.55;;;11.50;82.30;;;;;;5067844;28;20020;-66
2022/08/07 05:19:10;;;;;;;23.38;20.27;;;11.60;82.10;;;;;;5069376;28;20029;-66
2022/08/07 05:21:37;;;;;;;24.15;19.20;;;11.60;82.80;;;;;;5074647;28;20406;-66
2022/08/07 05:24:08;;;;;;;27.42;22.65;;;11.60;83.00;;;;;;5071198;28;20035;-66
2022/08/07 05:26:36;;;;;;;21.02;18.70;;;11.60;82.70;;;;;;5074549;28;20312;-66
2022/08/07 05:29:06;;;;;;;31.65;24.42;;;11.70;81.80;;;;;;5057774;28;20089;-66
2022/08/07 05:31:34;;;;;;;25.98;22.85;;;11.90;81.60;;;;;;5068690;28;20013;-66
2022/08/07 05:34:01;;;;;;;24.60;21.85;;;12.00;81.90;;;;;;5073853;28;20112;-66
2022/08/07 05:36:28;;;;;;;25.23;21.80;;;12.10;82.20;;;;;;5076704;28;20028;-66
2022/08/07 05:38:54;;;;;;;28.42;24.38;;;12.20;82.60;;;;;;5069352;28;20052;-67
2022/08/07 05:41:20;;;;;;;22.73;19.92;;;12.20;83.20;;;;;;5075508;28;20397;-67
2022/08/07 05:43:53;;;;;;;25.60;22.05;;;12.30;83.30;;;;;;5076022;28;20063;-67
2022/08/07 05:46:20;;;;;;;24.17;21.23;;;12.40;84.20;;;;;;5076637;28;20386;-67
2022/08/07 05:48:51;;;;;;;18.38;16.35;;;12.40;85.10;;;;;;5075900;28;20044;-66
2022/08/07 05:51:21;;;;;;;19.10;17.08;;;12.50;85.30;;;;;;5071950;28;20033;-67
2022/08/07 05:53:49;;;;;;;18.85;15.60;;;12.70;85.60;;;;;;5072926;28;20109;-67
2022/08/07 05:56:17;;;;;;;16.85;14.70;;;12.80;87.40;;;;;;5056692;28;20033;-66
2022/08/07 05:58:48;;;;;;;17.75;14.95;;;13.00;88.70;;;;;;5057985;28;20036;-67
2022/08/07 06:01:16;;;;;;;15.35;13.15;;;13.20;89.90;;;;;;5064417;28;20021;-66
2022/08/07 06:03:47;;;;;;;15.63;13.25;;;13.30;91.50;;;;;;5059792;28;20049;-67
2022/08/07 06:06:15;;;;;;;17.92;12.73;;;13.40;92.50;;;;;;5066078;28;20095;-66
2022/08/07 06:08:42;;;;;;;16.67;12.13;;;13.50;93.40;;;;;;5077712;28;20044;-66
2022/08/07 06:11:08;;;;;;;13.70;12.18;;;13.80;94.30;;;;;;5074013;28;20074;-67
2022/08/07 06:13:35;;;;;;;14.10;11.40;;;13.80;95.60;;;;;;5077412;28;20103;-66
2022/08/07 06:16:02;;;;;;;14.15;11.25;;;13.90;96.80;;;;;;5068829;28;20049;-66
2022/08/07 06:18:31;;;;;;;13.00;10.38;;;13.90;96.90;;;;;;5076658;28;20028;-66
2022/08/07 06:21:01;;;;;;;12.45;10.48;;;13.90;96.60;;;;;;5076096;28;20037;-67
2022/08/07 06:23:28;;;;;;;11.57;9.60;;;13.90;96.90;;;;;;5070705;28;20025;-67
2022/08/07 06:25:54;;;;;;;11.32;8.43;;;14.00;97.40;;;;;;5069819;28;20409;-66
2022/08/07 06:28:20;;;;;;;11.45;9.18;;;14.20;97.70;;;;;;5078437;28;20303;-67
2022/08/07 06:30:52;;;;;;;11.93;8.05;;;14.40;97.90;;;;;;5075410;28;20104;-67
2022/08/07 06:33:19;;;;;;;11.00;8.65;;;14.70;98.00;;;;;;5069402;28;20032;-67
2022/08/07 06:35:45;;;;;;;14.98;8.35;;;14.80;98.00;;;;;;5066047;28;20061;-66
2022/08/07 06:38:10;;;;;;;8.38;6.85;;;15.10;98.00;;;;;;5062351;28;20032;-66
2022/08/07 06:40:45;;;;;;;9.30;6.45;;;15.50;98.00;;;;;;5075826;28;20029;-66
2022/08/07 06:43:13;;;;;;;10.55;5.43;;;15.80;98.00;;;;;;5070312;28;20081;-65
2022/08/07 06:45:40;;;;;;;7.22;5.10;;;16.10;97.30;;;;;;5066461;28;20037;-66
2022/08/07 06:48:06;;;;;;;6.18;4.90;;;16.40;96.60;;;;;;5062800;28;20043;-67
2022/08/07 06:50:35;;;;;;;9.43;5.50;;;16.60;95.50;;;;;;5079209;28;20317;-67
2022/08/07 06:53:02;;;;;;;6.72;4.88;;;16.80;94.80;;;;;;5072120;28;20084;-67
2022/08/07 06:55:32;;;;;;;6.30;4.55;;;17.00;94.00;;;;;;5064082;28;20382;-68
2022/08/07 06:58:01;;;;;;;6.38;4.20;;;17.10;93.20;;;;;;5067491;28;20024;-66
2022/08/07 07:00:33;;;;;;;5.32;3.78;;;17.20;92.30;;;;;;5068985;28;20036;-66
2022/08/07 07:02:59;;;;;;;7.72;3.88;;;17.30;91.60;;;;;;5062491;28;20436;-66
2022/08/07 07:05:28;;;;;;;6.75;4.22;;;17.30;91.60;;;;;;5070493;28;20051;-66
2022/08/07 07:07:57;;;;;;;5.68;3.53;;;17.30;91.00;;;;;;5072381;28;20043;-68
2022/08/07 07:10:33;;;;;;;5.53;3.33;;;17.40;90.90;;;;;;5068612;28;20077;-67
2022/08/07 07:13:06;;;;;;;6.00;3.03;;;17.50;90.60;;;;;;5073110;28;20025;-67
2022/08/07 07:15:39;;;;;;;6.97;3.27;;;17.70;89.90;;;;;;5069093;28;20032;-68
2022/08/07 07:18:18;;;;;;;5.95;2.88;;;17.80;88.30;;;;;;5066552;28;20024;-67
2022/08/07 07:20:51;;;;;;;6.35;3.00;;;17.90;87.80;;;;;;5085734;28;20021;-68
2022/08/07 07:23:17;;;;;;;5.13;2.67;;;18.00;87.80;;;;;;5074515;28;20036;-67
2022/08/07 07:25:44;;;;;;;6.57;2.83;;;18.20;86.70;;;;;;5078575;28;20021;-67
2022/08/07 07:28:13;;;;;;;6.22;2.75;;;18.30;86.30;;;;;;5069672;28;20031;-66
2022/08/07 07:30:45;;;;;;;4.75;2.67;;;18.50;86.30;;;;;;5056373;28;20486;-67
2022/08/07 07:33:13;;;;;;;4.65;2.40;;;18.50;86.30;;;;;;5075873;28;20342;-67
2022/08/07 07:35:43;;;;;;;4.28;2.30;;;18.70;85.20;;;;;;5078039;28;20024;-67
2022/08/07 07:38:12;;;;;;;6.20;2.75;;;18.90;84.50;;;;;;5071314;28;20017;-67
2022/08/07 07:40:40;;;;;;;9.50;2.50;;;19.00;83.90;;;;;;5064478;28;20108;-67
2022/08/07 07:43:07;;;;;;;3.58;2.13;;;19.20;83.10;;;;;;5070576;28;20059;-67
2022/08/07 07:45:33;;;;;;;4.50;2.20;;;19.30;82.30;;;;;;5061429;28;20103;-67
2022/08/07 07:48:01;;;;;;;3.78;1.80;;;19.30;83.10;;;;;;5070783;28;20146;-68
2022/08/07 07:50:28;;;;;;;5.63;2.80;;;19.70;82.60;;;;;;5070980;28;20020;-67
2022/08/07 07:52:55;;;;;;;6.75;3.00;;;20.20;82.50;;;;;;5072091;28;20047;-67
2022/08/07 07:55:21;;;;;;;5.57;2.95;;;20.50;81.30;;;;;;5072508;28;20033;-67
2022/08/07 07:57:49;;;;;;;5.10;2.80;;;20.40;80.70;;;;;;5073627;28;20028;-67
2022/08/07 08:00:16;;;;;;;4.32;2.60;;;20.20;82.40;;;;;;5069844;28;20032;-66
2022/08/07 08:02:45;;;;;;;4.82;2.63;;;20.60;81.80;;;;;;5072527;28;20437;-68
2022/08/07 08:05:12;;;;;;;6.15;2.83;;;21.30;80.40;;;;;;5067732;28;20033;-66
2022/08/07 08:07:38;;;;;;;4.57;2.40;;;22.00;78.80;;;;;;5058207;28;20029;-67
2022/08/07 08:10:06;;;;;;;4.88;2.45;;;22.50;76.90;;;;;;5054943;28;20122;-67
2022/08/07 08:12:33;;;;;;;5.18;3.08;;;22.90;75.70;;;;;;5055807;28;20021;-67
2022/08/07 08:15:00;;;;;;;6.22;2.55;;;22.60;75.50;;;;;;5068931;28;20032;-67
2022/08/07 08:17:27;;;;;;;4.32;2.47;;;22.60;76.30;;;;;;5069217;28;20119;-67
2022/08/07 08:20:01;;;;;;;4.20;2.50;;;22.70;75.60;;;;;;5058138;28;20028;-67
2022/08/07 08:28:01;;;;;;;4.32;1.90;;;23.50;73.60;;;;;;5060726;28;20048;-67
2022/08/07 08:30:28;;;;;;;4.07;2.08;;;24.10;72.30;;;;;;5068114;28;20036;-67
2022/08/07 08:32:58;;;;;;;3.47;1.73;;;24.30;70.80;;;;;;5072703;28;20029;-67
2022/08/07 08:35:27;;;;;;;4.18;2.15;;;24.40;69.80;;;;;;5060489;28;20107;-67
2022/08/07 08:37:58;;;;;;;6.40;2.25;;;24.70;70.50;;;;;;5067761;28;20448;-67
2022/08/07 08:40:33;;;;;;;4.95;2.38;;;25.20;69.50;;;;;;5057456;28;20521;-67
2022/08/07 08:43:16;;;;;;;6.22;1.95;;;25.60;68.00;;;;;;5074326;28;20271;-65
2022/08/07 08:46:36;;;;;;;3.00;1.85;;;24.90;67.70;;;;;;5071421;28;20367;-67
2022/08/07 08:49:16;;;;;;;4.15;1.80;;;24.20;70.70;;;;;;5006392;28;20112;-67
2022/08/07 08:52:14;;;;;;;3.22;1.95;;;24.40;69.70;;;;;;5067913;28;20052;-67
2022/08/07 08:54:53;;;;;;;4.38;2.13;;;25.10;68.60;;;;;;5056470;28;20751;-67
2022/08/07 08:57:43;;;;;;;4.50;2.30;;;25.80;66.60;;;;;;5066409;28;20329;-68
2022/08/07 09:00:10;;;;;;;4.25;1.80;;;26.20;65.20;;;;;;5065550;28;20429;-67
2022/08/07 09:02:40;;;;;;;3.47;1.85;;;25.90;66.80;;;;;;5070066;28;20403;-67
2022/08/07 09:05:09;;;;;;;5.03;2.05;;;25.50;66.30;;;;;;5071232;28;20375;-67
2022/08/07 09:07:58;;;;;;;4.72;2.00;;;25.00;67.60;;;;;;5073092;28;20111;-66
2022/08/07 09:10:31;;;;;;;4.85;2.40;;;24.60;68.40;;;;;;5067770;28;20017;-65
2022/08/07 09:13:08;;;;;;;4.90;2.07;;;24.80;67.50;;;;;;5073378;28;20032;-67
2022/08/07 09:15:53;;;;;;;4.32;1.70;;;25.50;66.70;;;;;;5064409;28;20025;-67
2022/08/07 09:18:56;;;;;;;4.13;1.67;;;26.00;66.30;;;;;;5074298;28;20028;-66
2022/08/07 09:21:42;;;;;;;3.17;1.50;;;26.80;63.90;;;;;;5062425;28;20036;-66
2022/08/07 09:24:31;;;;;;;3.05;1.25;;;27.50;61.90;;;;;;5070640;28;20028;-67
2022/08/07 09:27:27;;;;;;;2.55;1.00;;;26.80;60.60;;;;;;5069349;28;20580;-66
2022/08/07 09:30:06;;;;;;;5.63;1.48;;;26.50;60.30;;;;;;5063603;28;20027;-66
2022/08/07 09:33:13;;;;;;;2.78;1.50;;;26.30;61.80;;;;;;5076658;28;20035;-65
2022/08/07 09:35:41;;;;;;;4.03;1.30;;;26.50;62.50;;;;;;5068652;28;20099;-67
2022/08/07 09:38:28;;;;;;;2.17;1.10;;;26.70;58.90;;;;;;5066850;28;20164;-67
2022/08/07 09:41:04;;;;;;;2.53;1.10;;;26.90;58.50;;;;;;5068262;28;20037;-66
2022/08/07 09:43:32;;;;;;;3.80;1.25;;;26.90;59.10;;;;;;5076690;28;20029;-67
2022/08/07 09:46:17;;;;;;;4.47;1.50;;;27.20;60.40;;;;;;5063843;28;20025;-67
2022/08/07 09:49:04;;;;;;;3.33;1.10;;;28.30;57.10;;;;;;5066376;28;20025;-66
2022/08/07 09:51:37;;;;;;;3.67;1.00;;;28.60;57.70;;;;;;5076233;28;20097;-66
2022/08/07 09:54:12;;;;;;;2.90;1.10;;;28.90;54.10;;;;;;5071408;28;20020;-66
2022/08/07 09:57:03;;;;;;;2.33;1.00;;;28.80;54.60;;;;;;5077991;28;20448;-66
2022/08/07 10:00:03;;;;;;;4.53;1.20;;;28.90;54.60;;;;;;5070242;28;20033;-66
2022/08/07 10:02:31;;;;;;;1.77;0.88;;;28.80;55.00;;;;;;5058642;28;20163;-67
2022/08/07 10:05:16;;;;;;;3.58;1.10;;;29.30;54.00;;;;;;5077801;28;20073;-66
2022/08/07 10:08:03;;;;;;;2.67;1.02;;;29.80;53.30;;;;;;5079719;28;20118;-68
2022/08/07 10:10:33;;;;;;;1.80;0.90;;;29.40;53.40;;;;;;5072767;28;20104;-68
2022/08/07 10:13:21;;;;;;;4.35;1.10;;;29.20;54.10;;;;;;5063416;28;20343;-67
2022/08/07 10:15:52;;;;;;;1.85;0.70;;;29.20;53.80;;;;;;5065251;28;20025;-67
2022/08/07 10:18:55;;;;;;;2.05;0.90;;;28.50;54.90;;;;;;5074823;28;20566;-66
2022/08/07 10:21:25;;;;;;;2.67;1.10;;;29.00;55.50;;;;;;5071128;28;20492;-67
2022/08/07 10:24:38;;;;;;;3.33;0.82;;;29.20;53.00;;;;;;5060908;28;20441;-67
2022/08/07 10:27:19;;;;;;;2.80;0.90;;;29.70;52.90;;;;;;5020927;28;20104;-67
2022/08/07 10:30:33;;;;;;;2.28;0.98;;;29.90;52.90;;;;;;5075788;28;20048;-65
2022/08/07 10:33:15;;;;;;;;;;;29.20;54.00;;;;;;5043521;28;20116;-66
2022/08/07 10:36:09;;;;;;;1.83;0.88;;;29.40;53.10;;;;;;5076854;28;19908;-66
2022/08/07 10:38:49;;;;;;;1.92;0.77;;;29.40;52.90;;;;;;5059204;28;20024;-66
2022/08/07 10:41:36;;;;;;;2.28;0.85;;;29.50;53.80;;;;;;5060816;28;20029;-67
2022/08/07 10:44:10;;;;;;;3.55;1.00;;;30.30;53.30;;;;;;5074378;28;20025;-66
2022/08/07 10:47:07;;;;;;;3.33;1.05;;;30.50;51.10;;;;;;5076168;28;20025;-67
2022/08/07 10:49:48;;;;;;;3.10;1.00;;;30.00;53.30;;;;;;5071992;28;20074;-66
2022/08/07 10:52:25;;;;;;;2.22;1.00;;;29.40;52.90;;;;;;5082496;28;20040;-68
2022/08/07 10:54:59;;;;;;;2.47;0.90;;;29.10;54.10;;;;;;5071005;28;20028;-67
2022/08/07 10:57:56;;;;;;;1.92;0.98;;;28.10;55.80;;;;;;5059321;28;20021;-67
2022/08/07 11:00:28;;;;;;;2.42;1.20;;;27.60;56.30;;;;;;5057006;28;20024;-67
2022/08/07 11:03:13;;;;;;;4.55;1.05;;;27.20;57.70;;;;;;5069659;28;20032;-67
2022/08/07 11:06:03;;;;;;;2.67;1.05;;;27.20;58.90;;;;;;5076827;28;20083;-67
2022/08/07 11:08:41;;;;;;;2.38;1.10;;;27.40;57.80;;;;;;5076659;28;20048;-67
2022/08/07 11:11:20;;;;;;;3.65;1.20;;;27.60;57.10;;;;;;5073170;28;20021;-67
2022/08/07 11:13:51;;;;;;;3.30;1.40;;;27.70;56.40;;;;;;5066083;28;20082;-67
2022/08/07 11:16:32;;;;;;;3.03;1.10;;;28.20;55.90;;;;;;5068772;28;20039;-67
2022/08/07 11:19:11;;;;;;;3.95;1.23;;;27.70;56.00;;;;;;5076505;28;20035;-67
2022/08/07 11:22:04;;;;;;;4.43;1.35;;;27.40;58.10;;;;;;5060424;28;20029;-67
2022/08/07 11:24:36;;;;;;;2.80;1.20;;;27.80;55.20;;;;;;5066895;28;20097;-67
2022/08/07 11:27:22;;;;;;;2.60;1.20;;;27.40;56.40;;;;;;5063911;28;20033;-67
2022/08/07 11:29:53;;;;;;;2.90;1.10;;;27.40;59.10;;;;;;5064905;28;20028;-67
2022/08/07 11:32:29;;;;;;;4.30;1.00;;;28.10;56.40;;;;;;5068675;28;20028;-67
2022/08/07 11:35:01;;;;;;;2.67;1.10;;;28.50;56.70;;;;;;5057564;28;20021;-67
2022/08/07 11:37:55;;;;;;;3.05;1.15;;;28.40;55.10;;;;;;5058791;28;20067;-67
2022/08/07 11:40:40;;;;;;;2.70;1.00;;;28.20;55.90;;;;;;5060686;28;20025;-67
2022/08/07 11:43:20;;;;;;;3.55;1.17;;;28.50;54.00;;;;;;5060360;28;20028;-67
2022/08/07 11:46:19;;;;;;;2.30;1.10;;;27.80;55.80;;;;;;5054941;28;20021;-67
2022/08/07 11:49:04;;;;;;;1.85;0.90;;;28.20;57.70;;;;;;5056166;28;20025;-67
2022/08/07 11:51:45;;;;;;;3.85;1.35;;;28.60;54.70;;;;;;5071989;28;20036;-67
2022/08/07 11:54:44;;;;;;;7.80;1.10;;;28.50;54.10;;;;;;5055994;28;20047;-68
2022/08/07 11:57:29;;;;;;;3.65;1.10;;;28.10;56.00;;;;;;5065917;28;20024;-67
2022/08/07 12:00:06;;;;;;;4.75;1.30;;;28.20;55.20;;;;;;5074152;28;20037;-67
2022/08/07 12:02:59;;;;;;;3.05;1.20;;;28.60;53.20;;;;;;5067814;28;20039;-67
2022/08/07 12:05:33;;;;;;;4.25;1.20;;;28.30;54.30;;;;;;5066988;28;20032;-67
2022/08/07 12:08:01;;;;;;;2.50;1.08;;;28.00;54.90;;;;;;5072357;28;20401;-67
2022/08/07 12:10:40;;;;;;;2.88;1.23;;;28.00;53.70;;;;;;5073952;28;20145;-67
2022/08/07 12:13:24;;;;;;;3.53;1.20;;;28.00;53.70;;;;;;5056142;28;20508;-68
2022/08/07 12:16:01;;;;;;;2.75;1.20;;;28.00;55.10;;;;;;5070361;28;20055;-67
2022/08/07 12:18:29;;;;;;;2.28;1.00;;;28.50;54.60;;;;;;5068314;28;20220;-68
2022/08/07 12:21:17;;;;;;;1.90;0.93;;;28.90;53.00;;;;;;5070180;28;20651;-68
2022/08/07 12:24:11;;;;;;;2.92;1.20;;;28.90;52.30;;;;;;5057116;28;20383;-66
2022/08/07 12:26:42;;;;;;;2.15;1.08;;;28.80;52.40;;;;;;5060851;28;20429;-67
2022/08/07 12:29:41;;;;;;;1.92;1.00;;;28.80;52.40;;;;;;5060967;28;20017;-67
2022/08/07 12:32:25;;;;;;;3.47;1.45;;;28.80;53.40;;;;;;5068127;28;20384;-67
2022/08/07 12:34:53;;;;;;;4.47;1.27;;;28.90;51.00;;;;;;5067481;28;20028;-66
2022/08/07 12:37:25;;;;;;;2.95;1.20;;;29.10;52.20;;;;;;5056477;28;20036;-66
2022/08/07 12:39:53;;;;;;;1.95;0.98;;;29.00;52.20;;;;;;5062545;28;20025;-67
2022/08/07 12:42:25;;;;;;;3.78;1.30;;;29.20;53.30;;;;;;5075419;28;20035;-66
2022/08/07 12:44:52;;;;;;;3.38;1.40;;;29.50;51.60;;;;;;5061444;28;20036;-66
2022/08/07 12:47:50;;;;;;;3.45;1.17;;;29.50;50.70;;;;;;5058175;28;20055;-66
2022/08/07 12:50:28;;;;;;;2.17;0.90;;;29.50;51.60;;;;;;5075083;28;20056;-67
2022/08/07 12:53:10;;;;;;;4.05;1.00;;;29.40;49.80;;;;;;5079653;28;20116;-66
2022/08/07 12:56:15;;;;;;;2.15;1.02;;;29.20;51.50;;;;;;5060356;28;20020;-66
2022/08/07 12:58:43;;;;;;;;;;;29.10;50.80;;;;;;5035708;28;20120;-65
2022/08/07 13:01:30;;;;;;;4.28;1.25;;;28.60;51.70;;;;;;5059780;28;20054;-65
2022/08/07 13:04:14;;;;;;;3.25;1.00;;;28.20;54.20;;;;;;5065484;28;20035;-67
2022/08/07 13:07:12;;;;;;;2.70;1.00;;;28.30;53.20;;;;;;5076988;28;20032;-68
2022/08/07 13:10:15;;;;;;;4.13;1.00;;;29.00;51.40;;;;;;5055208;28;20523;-68
2022/08/07 13:13:00;;;;;;;3.00;1.08;;;29.40;51.50;;;;;;5077925;28;20037;-66
2022/08/07 13:15:56;;;;;;;1.83;0.85;;;29.70;50.60;;;;;;5060153;28;20025;-66